createdAt,value
2018-04-18T00:00:01.301Z,9.00
2018-04-18T00:02:29.361Z,10.27
2018-04-18T00:04:57.427Z,9.93
2018-04-18T00:07:26.256Z,9.63
2018-04-18T00:09:55.683Z,8.87
2018-04-18T00:12:23.714Z,9.50
2018-04-18T00:14:51.787Z,8.87
2018-04-18T00:17:19.848Z,9.37
2018-04-18T00:19:47.917Z,9.27
2018-04-18T00:22:15.975Z,9.07
2018-04-18T00:24:44.798Z,9.10
2018-04-18T00:27:12.856Z,9.17
2018-04-18T00:29:40.917Z,9.23
2018-04-18T00:32:09.750Z,9.10
2018-04-18T00:34:37.811Z,8.67
2018-04-18T00:37:05.873Z,9.77
2018-04-18T00:39:33.935Z,10.00
2018-04-18T00:42:02.006Z,10.33
2018-04-18T00:44:30.061Z,9.40
2018-04-18T00:46:58.899Z,10.30
2018-04-18T00:49:26.959Z,9.50
2018-04-18T00:51:55.066Z,9.70
2018-04-18T00:54:23.198Z,9.77
2018-04-18T00:56:51.390Z,9.67
2018-04-18T00:59:19.449Z,10.37
2018-04-18T01:01:47.568Z,10.20
2018-04-18T01:04:16.418Z,9.80
2018-04-18T01:06:44.553Z,9.77
2018-04-18T01:09:12.634Z,9.60
2018-04-18T01:11:40.787Z,9.70
2018-04-18T01:14:08.855Z,9.70
2018-04-18T01:16:36.928Z,10.30
2018-04-18T01:19:05.770Z,10.70
2018-04-18T01:21:33.839Z,9.60
2018-04-18T01:24:01.912Z,9.73
2018-04-18T01:26:30.042Z,10.03
2018-04-18T01:28:58.131Z,10.13
2018-04-18T01:31:26.187Z,9.80
2018-04-18T01:33:54.257Z,10.73
2018-04-18T01:36:22.350Z,10.83
2018-04-18T01:38:50.453Z,10.87
2018-04-18T01:41:18.521Z,12.07
2018-04-18T01:43:46.589Z,11.13
2018-04-18T01:46:14.649Z,12.10
2018-04-18T01:48:42.704Z,11.80
2018-04-18T01:51:10.774Z,12.10
2018-04-18T01:53:38.879Z,11.00
2018-04-18T01:56:08.713Z,12.53
2018-04-18T01:58:36.787Z,12.07
2018-04-18T02:01:04.844Z,11.87
2018-04-18T02:03:32.907Z,12.27
2018-04-18T02:06:01.900Z,11.97
2018-04-18T02:08:29.949Z,11.67
2018-04-18T02:10:58.005Z,12.00
2018-04-18T02:13:26.082Z,11.23
2018-04-18T02:15:54.999Z,10.63
2018-04-18T02:18:23.053Z,11.23
2018-04-18T02:20:51.120Z,11.00
2018-04-18T02:23:19.181Z,11.60
2018-04-18T02:25:47.273Z,11.40
2018-04-18T02:28:15.344Z,10.90
2018-04-18T02:30:43.423Z,10.87
2018-04-18T02:33:11.482Z,10.67
2018-04-18T02:35:39.544Z,10.63
2018-04-18T02:38:07.659Z,10.20
2018-04-18T02:40:37.066Z,10.23
2018-04-18T02:43:05.907Z,10.27
2018-04-18T02:45:33.966Z,10.17
2018-04-18T02:48:02.037Z,9.80
2018-04-18T02:50:30.112Z,10.00
2018-04-18T02:52:58.162Z,9.17
2018-04-18T02:55:26.227Z,9.57
2018-04-18T02:57:54.272Z,8.83
2018-04-18T03:00:23.090Z,8.80
2018-04-18T03:02:51.900Z,8.93
2018-04-18T03:05:19.949Z,9.27
2018-04-18T03:07:48.007Z,9.60
2018-04-18T03:10:16.119Z,9.07
2018-04-18T03:12:44.173Z,9.50
2018-04-18T03:15:12.235Z,9.30
2018-04-18T03:17:40.294Z,10.03
2018-04-18T03:20:08.387Z,10.37
2018-04-18T03:22:36.635Z,10.33
2018-04-18T03:25:04.723Z,10.60
2018-04-18T03:27:32.790Z,11.33
2018-04-18T03:30:00.943Z,11.83
2018-04-18T03:32:29.771Z,10.97
2018-04-18T03:34:57.839Z,11.23
2018-04-18T03:37:25.910Z,11.93
2018-04-18T03:39:53.960Z,12.33
2018-04-18T03:42:22.024Z,13.27
2018-04-18T03:44:50.967Z,13.03
2018-04-18T03:47:19.015Z,13.23
2018-04-18T03:49:47.087Z,13.10
2018-04-18T03:52:15.155Z,13.10
2018-04-18T03:54:43.209Z,11.97
2018-04-18T03:57:11.285Z,13.30
2018-04-18T03:59:40.123Z,12.03
2018-04-18T04:02:08.183Z,12.30
2018-04-18T04:04:36.244Z,12.67
2018-04-18T04:07:04.311Z,12.00
2018-04-18T04:09:32.376Z,11.87
2018-04-18T04:12:00.542Z,11.67
2018-04-18T04:14:28.604Z,12.13
2018-04-18T04:17:08.512Z,11.77
2018-04-18T04:19:48.598Z,11.67
2018-04-18T04:22:28.509Z,11.27
2018-04-18T04:24:56.617Z,11.23
2018-04-18T04:27:24.687Z,11.07
2018-04-18T04:29:53.595Z,11.97
2018-04-18T04:32:21.672Z,11.83
2018-04-18T04:34:49.776Z,11.50
2018-04-18T04:37:17.870Z,11.57
2018-04-18T04:39:45.996Z,11.73
2018-04-18T04:42:14.047Z,11.77
2018-04-18T04:44:42.102Z,11.93
2018-04-18T04:47:10.179Z,12.00
2018-04-18T04:49:38.221Z,11.37
2018-04-18T04:52:06.280Z,11.57
2018-04-18T04:54:34.343Z,12.40
2018-04-18T04:57:02.412Z,10.83
2018-04-18T04:59:30.471Z,12.90
2018-04-18T05:01:58.540Z,12.40
2018-04-18T05:04:26.577Z,13.43
2018-04-18T05:06:54.646Z,12.63
2018-04-18T05:09:22.714Z,12.40
2018-04-18T05:11:50.839Z,13.90
2018-04-18T05:14:18.903Z,14.70
2018-04-18T05:16:46.967Z,13.10
2018-04-18T05:19:15.038Z,12.30
2018-04-18T05:21:43.122Z,13.23
2018-04-18T05:24:11.195Z,13.07
2018-04-18T05:26:39.252Z,12.97
2018-04-18T05:29:07.342Z,12.77
2018-04-18T05:31:37.358Z,13.93
2018-04-18T05:34:05.409Z,12.97
2018-04-18T05:36:33.469Z,12.87
2018-04-18T05:39:01.531Z,13.10
2018-04-18T05:41:29.586Z,12.37
2018-04-18T05:43:59.109Z,12.43
2018-04-18T05:46:27.172Z,12.33
2018-04-18T05:48:55.240Z,12.17
2018-04-18T05:51:23.307Z,12.30
2018-04-18T05:53:51.360Z,11.93
2018-04-18T05:56:19.463Z,11.73
2018-04-18T05:58:47.519Z,12.63
2018-04-18T06:01:15.588Z,12.20
2018-04-18T06:03:43.767Z,11.67
2018-04-18T06:06:12.957Z,12.23
2018-04-18T06:08:41.763Z,12.03
2018-04-18T06:11:09.860Z,12.57
2018-04-18T06:13:37.891Z,12.67
2018-04-18T06:16:05.958Z,12.77
2018-04-18T06:18:34.035Z,12.23
2018-04-18T06:21:02.103Z,12.80
2018-04-18T06:23:30.161Z,12.27
2018-04-18T06:25:58.232Z,12.83
2018-04-18T06:28:26.290Z,12.90
2018-04-18T06:30:54.361Z,12.10
2018-04-18T06:33:22.423Z,12.50
2018-04-18T06:35:51.245Z,11.90
2018-04-18T06:38:19.314Z,12.13
2018-04-18T06:40:47.380Z,11.40
2018-04-18T06:43:15.459Z,11.43
2018-04-18T06:45:43.528Z,11.63
2018-04-18T06:48:11.603Z,11.43
2018-04-18T06:50:39.674Z,11.67
2018-04-18T06:53:07.751Z,11.27
2018-04-18T06:55:35.817Z,11.83
2018-04-18T06:58:03.894Z,11.53
2018-04-18T07:00:31.965Z,11.70
2018-04-18T07:03:00.035Z,12.33
2018-04-18T07:05:28.080Z,11.73
2018-04-18T07:07:56.140Z,12.57
2018-04-18T07:10:24.965Z,12.70
2018-04-18T07:12:53.029Z,13.80
2018-04-18T07:15:21.099Z,12.27
2018-04-18T07:17:49.171Z,12.43
2018-04-18T07:20:17.235Z,11.23
2018-04-18T07:22:45.366Z,11.50
2018-04-18T07:25:13.427Z,11.60
2018-04-18T07:27:41.538Z,10.10
2018-04-18T07:30:09.557Z,10.87
2018-04-18T07:32:37.630Z,10.20
2018-04-18T07:35:05.767Z,10.60
2018-04-18T07:37:34.546Z,9.63
2018-04-18T07:40:02.622Z,9.13
2018-04-18T07:42:30.674Z,8.97
2018-04-18T07:44:58.742Z,9.23
2018-04-18T07:47:27.561Z,8.47
2018-04-18T07:49:55.634Z,8.70
2018-04-18T07:52:23.806Z,7.43
2018-04-18T07:54:52.130Z,7.90
2018-04-18T07:57:20.264Z,7.70
2018-04-18T07:59:48.326Z,7.10
2018-04-18T08:02:16.388Z,6.87
2018-04-18T08:04:44.438Z,6.73
2018-04-18T08:07:13.304Z,6.60
2018-04-18T08:09:41.468Z,6.40
2018-04-18T08:12:09.507Z,5.90
2018-04-18T08:14:37.567Z,6.07
2018-04-18T08:17:05.643Z,6.60
2018-04-18T08:19:33.711Z,5.97
2018-04-18T08:22:01.903Z,7.20
2018-04-18T08:24:29.974Z,5.70
2018-04-18T08:26:58.031Z,5.40
2018-04-18T08:29:26.863Z,4.70
2018-04-18T08:31:54.928Z,5.23
2018-04-18T08:34:22.998Z,5.23
2018-04-18T08:36:51.055Z,5.37
2018-04-18T08:39:19.117Z,4.60
2018-04-18T08:41:47.167Z,4.80
2018-04-18T08:44:15.223Z,4.50
2018-04-18T08:46:44.043Z,4.53
2018-04-18T08:49:12.111Z,4.90
2018-04-18T08:51:40.169Z,5.17
2018-04-18T08:54:08.234Z,4.67
2018-04-18T08:56:36.291Z,4.80
2018-04-18T08:59:05.114Z,4.10
2018-04-18T09:01:33.156Z,3.93
2018-04-18T09:04:01.219Z,4.77
2018-04-18T09:06:30.036Z,3.73
2018-04-18T09:08:58.224Z,3.90
2018-04-18T09:11:26.270Z,3.70
2018-04-18T09:13:54.322Z,3.27
2018-04-18T09:16:23.128Z,3.07
2018-04-18T09:18:51.198Z,3.30
2018-04-18T09:21:19.276Z,3.83
2018-04-18T09:23:48.068Z,3.30
2018-04-18T09:26:16.866Z,3.07
2018-04-18T09:28:44.912Z,3.50
2018-04-18T09:31:12.998Z,3.10
2018-04-18T09:33:41.040Z,3.40
2018-04-18T09:36:11.215Z,3.13
2018-04-18T09:38:39.258Z,3.33
2018-04-18T09:41:07.323Z,3.33
2018-04-18T09:43:35.353Z,3.60
2018-04-18T09:46:03.401Z,3.17
2018-04-18T09:48:31.455Z,3.50
2018-04-18T09:50:59.513Z,2.50
2018-04-18T09:53:27.553Z,2.80
2018-04-18T09:55:56.376Z,2.37
2018-04-18T09:58:24.480Z,2.58
2018-04-18T10:00:56.300Z,2.40
2018-04-18T10:03:24.369Z,2.40
2018-04-18T10:05:52.436Z,2.70
2018-04-18T10:08:20.490Z,2.22
2018-04-18T10:10:49.320Z,2.30
2018-04-18T10:13:17.365Z,1.80
2018-04-18T10:15:45.419Z,2.50
2018-04-18T10:18:14.239Z,2.60
2018-04-18T10:20:42.305Z,2.25
2018-04-18T10:23:10.369Z,3.15
2018-04-18T10:25:38.422Z,2.90
2018-04-18T10:28:06.481Z,2.62
2018-04-18T10:30:34.534Z,2.50
2018-04-18T10:33:02.639Z,3.12
2018-04-18T10:35:30.694Z,2.70
2018-04-18T10:37:59.511Z,2.85
2018-04-18T10:40:27.579Z,2.65
2018-04-18T10:42:55.622Z,3.17
2018-04-18T10:45:24.450Z,3.25
2018-04-18T10:47:52.512Z,3.03
2018-04-18T10:50:20.565Z,3.20
2018-04-18T10:52:48.614Z,3.30
2018-04-18T10:55:16.723Z,3.40
2018-04-18T10:57:44.765Z,3.63
2018-04-18T11:00:13.589Z,3.03
2018-04-18T11:02:41.645Z,3.57
2018-04-18T11:05:09.693Z,3.87
2018-04-18T11:07:37.768Z,3.90
2018-04-18T11:10:06.593Z,3.43
2018-04-18T11:12:34.656Z,3.93
2018-04-18T11:15:02.718Z,4.20
2018-04-18T11:17:30.780Z,3.90
2018-04-18T11:19:59.593Z,3.77
2018-04-18T11:22:27.654Z,3.80
2018-04-18T11:24:55.691Z,3.13
2018-04-18T11:27:36.093Z,3.10
2018-04-18T11:30:04.206Z,2.73
2018-04-18T11:32:32.259Z,3.60
2018-04-18T11:35:00.298Z,3.43
2018-04-18T11:37:28.357Z,4.17
2018-04-18T11:39:56.407Z,3.67
2018-04-18T11:42:24.462Z,3.93
2018-04-18T11:44:52.529Z,3.70
2018-04-18T11:47:20.577Z,3.50
2018-04-18T11:49:48.623Z,3.27
2018-04-18T11:52:16.682Z,4.50
2018-04-18T11:54:44.738Z,3.80
2018-04-18T11:57:13.563Z,3.80
2018-04-18T11:59:41.631Z,3.63
2018-04-18T12:02:09.683Z,3.83
2018-04-18T12:04:38.539Z,3.83
2018-04-18T12:07:06.585Z,3.53
2018-04-18T12:09:34.643Z,4.00
2018-04-18T12:12:02.703Z,4.07
2018-04-18T12:14:30.767Z,4.57
2018-04-18T12:16:58.842Z,3.80
2018-04-18T12:19:26.880Z,3.90
2018-04-18T12:21:55.707Z,4.27
2018-04-18T12:24:23.749Z,3.97
2018-04-18T12:26:52.574Z,4.40
2018-04-18T12:29:23.563Z,4.30
2018-04-18T12:31:51.618Z,3.47
2018-04-18T12:34:20.518Z,4.10
2018-04-18T12:36:48.576Z,4.60
2018-04-18T12:39:16.641Z,3.53
2018-04-18T12:41:44.694Z,4.33
2018-04-18T12:44:12.747Z,5.33
2018-04-18T12:46:40.803Z,5.10
2018-04-18T12:49:08.842Z,4.90
2018-04-18T12:51:36.900Z,5.17
2018-04-18T12:54:05.502Z,5.20
2018-04-18T12:56:33.570Z,5.23
2018-04-18T12:59:01.605Z,5.20
2018-04-18T13:01:29.656Z,5.63
2018-04-18T13:03:57.708Z,4.80
2018-04-18T13:06:25.769Z,5.47
2018-04-18T13:08:54.573Z,5.20
2018-04-18T13:11:22.659Z,4.60
2018-04-18T13:13:50.715Z,4.97
2018-04-18T13:16:18.750Z,4.70
2018-04-18T13:18:46.815Z,4.43
2018-04-18T13:21:14.931Z,4.00
2018-04-18T13:23:42.994Z,4.67
2018-04-18T13:26:11.053Z,6.07
2018-04-18T13:28:39.872Z,4.43
2018-04-18T13:31:07.910Z,4.97
2018-04-18T13:33:36.741Z,5.07
2018-04-18T13:36:04.959Z,6.00
2018-04-18T13:38:33.013Z,5.63
2018-04-18T13:41:01.063Z,5.70
2018-04-18T13:43:31.075Z,5.20
2018-04-18T13:45:59.119Z,4.27
2018-04-18T13:48:27.190Z,4.40
2018-04-18T13:50:55.249Z,4.97
2018-04-18T13:53:24.075Z,4.87
2018-04-18T13:55:52.125Z,4.73
2018-04-18T13:58:20.194Z,4.50
2018-04-18T14:00:48.241Z,4.10
2018-04-18T14:03:17.074Z,4.40
2018-04-18T14:05:46.404Z,4.37
2018-04-18T14:08:18.479Z,5.27
2018-04-18T14:10:46.530Z,4.20
2018-04-18T14:13:14.586Z,4.37
2018-04-18T14:15:42.633Z,4.17
2018-04-18T14:18:10.699Z,5.03
2018-04-18T14:20:38.745Z,4.70
2018-04-18T14:23:07.560Z,4.30
2018-04-18T14:25:35.607Z,4.40
2018-04-18T14:28:04.433Z,3.97
2018-04-18T14:30:33.282Z,4.00
2018-04-18T14:33:02.105Z,4.10
2018-04-18T14:35:30.155Z,5.23
2018-04-18T14:37:58.966Z,4.90
2018-04-18T14:40:27.031Z,5.23
2018-04-18T14:42:55.085Z,4.97
2018-04-18T14:45:23.130Z,4.43
2018-04-18T14:47:51.188Z,4.50
2018-04-18T14:50:19.235Z,4.93
2018-04-18T14:52:47.293Z,4.97
2018-04-18T14:55:15.346Z,4.70
2018-04-18T14:57:43.458Z,5.03
2018-04-18T15:00:11.493Z,4.83
2018-04-18T15:02:39.580Z,4.50
2018-04-18T15:05:07.638Z,5.03
2018-04-18T15:07:35.723Z,4.77
2018-04-18T15:10:03.776Z,4.87
2018-04-18T15:12:31.823Z,5.20
2018-04-18T15:15:00.655Z,4.53
2018-04-18T15:17:28.700Z,5.50
2018-04-18T15:19:56.762Z,5.13
2018-04-18T15:22:24.815Z,4.80
2018-04-18T15:24:53.670Z,5.40
2018-04-18T15:27:21.736Z,4.53
2018-04-18T15:29:50.126Z,5.37
2018-04-18T15:32:18.340Z,5.90
2018-04-18T15:34:47.359Z,8.07
2018-04-18T15:37:15.635Z,8.73
2018-04-18T15:39:44.611Z,13.77
2018-04-18T15:42:13.566Z,7.10
2018-04-18T15:44:41.946Z,8.13
2018-04-18T15:47:10.144Z,7.87
2018-04-18T15:49:39.032Z,7.10
2018-04-18T15:52:07.235Z,8.87
2018-04-18T15:54:35.583Z,7.60
2018-04-18T15:57:04.123Z,10.10
2018-04-18T15:59:32.184Z,9.73
2018-04-18T16:02:00.405Z,8.00
2018-04-18T16:04:28.690Z,8.63
2018-04-18T16:06:57.710Z,8.70
2018-04-18T16:09:26.764Z,8.57
2018-04-18T16:11:55.673Z,7.67
2018-04-18T16:14:23.888Z,8.17
2018-04-18T16:16:51.959Z,7.40
2018-04-18T16:19:20.259Z,8.37
2018-04-18T16:21:48.416Z,8.60
2018-04-18T16:24:16.661Z,8.33
2018-04-18T16:26:45.754Z,7.50
2018-04-18T16:29:25.594Z,7.63
2018-04-18T16:31:53.797Z,7.50
2018-04-18T16:34:21.917Z,7.37
2018-04-18T16:36:54.275Z,7.33
2018-04-18T16:39:22.537Z,7.50
2018-04-18T16:41:50.792Z,7.60
2018-04-18T16:44:19.209Z,7.27
2018-04-18T16:46:48.505Z,7.63
2018-04-18T16:49:17.426Z,6.40
2018-04-18T16:51:45.617Z,7.70
2018-04-18T16:54:14.661Z,7.00
2018-04-18T16:56:42.918Z,7.73
2018-04-18T16:59:11.360Z,7.00
2018-04-18T17:01:41.284Z,6.10
2018-04-18T17:04:10.803Z,7.20
2018-04-18T17:06:38.892Z,7.30
2018-04-18T17:09:06.907Z,8.57
2018-04-18T17:11:35.726Z,9.37
2018-04-18T17:14:03.785Z,9.87
2018-04-18T17:16:31.842Z,7.73
2018-04-18T17:18:59.915Z,9.00
2018-04-18T17:21:28.050Z,10.40
2018-04-18T17:23:56.199Z,11.60
2018-04-18T17:26:24.389Z,7.03
2018-04-18T17:28:52.480Z,8.80
2018-04-18T17:31:20.561Z,10.30
2018-04-18T17:33:49.385Z,9.27
2018-04-18T17:36:17.454Z,10.00
2018-04-18T17:38:45.529Z,8.80
2018-04-18T17:41:13.581Z,8.87
2018-04-18T17:43:41.633Z,9.87
2018-04-18T17:46:10.564Z,8.60
2018-04-18T17:48:38.674Z,8.43
2018-04-18T17:51:06.699Z,9.17
2018-04-18T17:53:34.749Z,8.40
2018-04-18T17:56:03.609Z,8.40
2018-04-18T17:58:31.637Z,9.47
2018-04-18T18:00:59.694Z,8.90
2018-04-18T18:03:27.741Z,8.53
2018-04-18T18:05:55.817Z,9.63
2018-04-18T18:08:24.677Z,8.57
2018-04-18T18:10:52.737Z,8.70
2018-04-18T18:13:20.812Z,8.37
2018-04-18T18:15:49.715Z,10.00
2018-04-18T18:18:18.990Z,9.33
2018-04-18T18:20:48.211Z,9.87
2018-04-18T18:23:16.268Z,9.27
2018-04-18T18:25:44.325Z,9.10
2018-04-18T18:28:12.390Z,10.20
2018-04-18T18:30:40.484Z,10.40
2018-04-18T18:33:08.588Z,11.13
2018-04-18T18:35:37.628Z,10.47
2018-04-18T18:38:05.688Z,10.33
2018-04-18T18:40:33.786Z,10.93
2018-04-18T18:43:02.021Z,10.17
2018-04-18T18:45:30.082Z,11.13
2018-04-18T18:47:58.262Z,10.67
2018-04-18T18:50:26.340Z,10.33
2018-04-18T18:52:54.393Z,12.13
2018-04-18T18:55:22.477Z,11.70
2018-04-18T18:57:50.759Z,11.20
2018-04-18T19:00:18.833Z,11.33
2018-04-18T19:02:49.497Z,10.80
2018-04-18T19:05:18.377Z,11.30
2018-04-18T19:07:46.440Z,11.13
2018-04-18T19:10:14.512Z,11.60
2018-04-18T19:12:42.571Z,10.83
2018-04-18T19:15:10.630Z,10.93
2018-04-18T19:17:38.799Z,10.90
2018-04-18T19:20:06.870Z,10.93
2018-04-18T19:22:34.933Z,11.50
2018-04-18T19:25:03.003Z,10.63
2018-04-18T19:27:31.860Z,10.90
2018-04-18T19:29:59.910Z,10.80
2018-04-18T19:32:27.983Z,9.67
2018-04-18T19:34:56.227Z,10.33
2018-04-18T19:37:25.022Z,10.73
2018-04-18T19:39:53.087Z,10.97
2018-04-18T19:42:21.163Z,10.20
2018-04-18T19:44:49.236Z,10.10
2018-04-18T19:47:17.315Z,9.83
2018-04-18T19:49:45.383Z,10.77
2018-04-18T19:52:13.448Z,11.20
2018-04-18T19:54:41.514Z,10.70
2018-04-18T19:57:09.765Z,10.07
2018-04-18T19:59:37.827Z,10.90
2018-04-18T20:02:06.649Z,10.83
2018-04-18T20:04:34.726Z,10.90
2018-04-18T20:07:02.791Z,9.40
2018-04-18T20:09:30.839Z,10.47
2018-04-18T20:11:59.674Z,10.50
2018-04-18T20:14:27.736Z,10.50
2018-04-18T20:16:56.604Z,10.47
2018-04-18T20:19:24.663Z,11.30
2018-04-18T20:21:53.558Z,11.37
2018-04-18T20:24:21.613Z,11.03
2018-04-18T20:26:50.464Z,11.33
2018-04-18T20:29:18.519Z,11.03
2018-04-18T20:31:46.591Z,12.27
2018-04-18T20:34:14.807Z,12.43
2018-04-18T20:36:50.767Z,12.63
2018-04-18T20:39:18.817Z,12.93
2018-04-18T20:41:56.883Z,12.77
2018-04-18T20:44:24.953Z,11.90
2018-04-18T20:46:53.052Z,12.60
2018-04-18T20:49:21.092Z,13.80
2018-04-18T20:51:49.171Z,12.37
2018-04-18T20:54:18.815Z,13.00
2018-04-18T20:56:46.887Z,12.50
2018-04-18T20:59:14.933Z,11.50
2018-04-18T21:01:43.010Z,12.10
2018-04-18T21:04:11.086Z,12.03
2018-04-18T21:06:39.163Z,12.03
2018-04-18T21:09:07.247Z,12.53
2018-04-18T21:11:35.307Z,12.13
2018-04-18T21:14:03.397Z,12.40
2018-04-18T21:16:31.456Z,11.67
2018-04-18T21:18:59.599Z,13.00
2018-04-18T21:21:27.741Z,12.17
2018-04-18T21:23:56.590Z,11.67
2018-04-18T21:26:24.661Z,13.47
2018-04-18T21:28:52.784Z,12.27
2018-04-18T21:31:20.926Z,11.60
2018-04-18T21:33:49.029Z,11.60
2018-04-18T21:36:17.118Z,12.03
2018-04-18T21:38:45.202Z,11.30
2018-04-18T21:41:13.271Z,11.70
2018-04-18T21:43:41.340Z,12.47
2018-04-18T21:46:09.402Z,12.33
2018-04-18T21:48:37.486Z,11.73
2018-04-18T21:51:05.555Z,11.70
2018-04-18T21:53:33.634Z,12.23
2018-04-18T21:56:01.728Z,12.00
2018-04-18T21:58:29.830Z,12.10
2018-04-18T22:00:57.896Z,11.10
2018-04-18T22:03:26.735Z,12.80
2018-04-18T22:05:54.830Z,11.80
2018-04-18T22:08:22.867Z,11.60
2018-04-18T22:10:50.927Z,10.93
2018-04-18T22:13:18.994Z,11.73
2018-04-18T22:15:47.056Z,11.60
2018-04-18T22:18:15.315Z,11.50
2018-04-18T22:20:43.383Z,11.23
2018-04-18T22:23:11.459Z,11.37
2018-04-18T22:25:39.528Z,10.70
2018-04-18T22:28:07.835Z,11.50
2018-04-18T22:30:35.913Z,11.30
2018-04-18T22:33:03.978Z,11.90
2018-04-18T22:35:32.063Z,12.07
2018-04-18T22:38:00.143Z,11.37
2018-04-18T22:40:28.211Z,10.83
2018-04-18T22:42:56.297Z,11.20
2018-04-18T22:45:24.366Z,11.60
2018-04-18T22:47:52.502Z,11.73
2018-04-18T22:50:20.571Z,12.20
2018-04-18T22:52:48.695Z,12.20
2018-04-18T22:55:16.752Z,11.67
2018-04-18T22:57:44.825Z,11.93
2018-04-18T23:00:13.223Z,11.13
2018-04-18T23:02:41.287Z,11.73
2018-04-18T23:05:09.358Z,12.63
2018-04-18T23:07:37.478Z,11.20
2018-04-18T23:10:05.549Z,12.37
2018-04-18T23:12:33.616Z,11.57
2018-04-18T23:15:01.678Z,11.93
2018-04-18T23:17:29.945Z,11.43
2018-04-18T23:19:58.769Z,11.60
2018-04-18T23:22:33.698Z,11.43
2018-04-18T23:25:01.772Z,10.77
2018-04-18T23:27:30.598Z,9.60
2018-04-18T23:29:58.788Z,9.80
2018-04-18T23:32:27.614Z,9.70
2018-04-18T23:34:55.687Z,10.30
2018-04-18T23:37:23.753Z,9.43
2018-04-18T23:39:53.342Z,9.53
2018-04-18T23:42:21.420Z,8.40
2018-04-18T23:44:49.498Z,8.80
2018-04-18T23:47:17.598Z,8.50
2018-04-18T23:49:45.667Z,8.10
2018-04-18T23:52:13.727Z,7.83
2018-04-18T23:54:41.785Z,8.53
2018-04-18T23:57:09.855Z,8.13
2018-04-18T23:59:37.923Z,8.53
